sensor_id;sensor_type;location;lat;lon;timestamp;temperature;humidity
64654;DHT22;51065;48.884;12.598;2023-09-18T00:00:44;14.50;99.90
64654;DHT22;51065;48.884;12.598;2023-09-18T00:03:10;14.50;99.90
64654;DHT22;51065;48.884;12.598;2023-09-18T00:05:35;14.50;99.90
64654;DHT22;51065;48.884;12.598;2023-09-18T00:08:01;14.60;99.90
64654;DHT22;51065;48.884;12.598;2023-09-18T00:10:32;14.60;99.90
64654;DHT22;51065;48.884;12.598;2023-09-18T00:12:58;14.60;99.90
64654;DHT22;51065;48.884;12.598;2023-09-18T00:15:24;14.60;99.90
64654;DHT22;51065;48.884;12.598;2023-09-18T00:17:49;14.60;99.90
64654;DHT22;51065;48.884;12.598;2023-09-18T00:20:15;14.60;99.90
64654;DHT22;51065;48.884;12.598;2023-09-18T00:22:43;14.70;99.90
64654;DHT22;51065;48.884;12.598;2023-09-18T00:25:09;14.70;99.90
64654;DHT22;51065;48.884;12.598;2023-09-18T00:27:35;14.70;99.90
64654;DHT22;51065;48.884;12.598;2023-09-18T00:30:04;14.70;99.90
64654;DHT22;51065;48.884;12.598;2023-09-18T00:32:30;14.70;99.90
64654;DHT22;51065;48.884;12.598;2023-09-18T00:34:55;14.70;99.90
64654;DHT22;51065;48.884;12.598;2023-09-18T00:37:23;14.80;99.90
64654;DHT22;51065;48.884;12.598;2023-09-18T00:39:49;14.90;99.90
64654;DHT22;51065;48.884;12.598;2023-09-18T00:42:15;14.90;99.90
64654;DHT22;51065;48.884;12.598;2023-09-18T00:44:43;14.90;99.90
64654;DHT22;51065;48.884;12.598;2023-09-18T00:47:09;14.80;99.90
64654;DHT22;51065;48.884;12.598;2023-09-18T00:49:36;14.80;99.90
64654;DHT22;51065;48.884;12.598;2023-09-18T00:52:02;14.70;99.90
64654;DHT22;51065;48.884;12.598;2023-09-18T00:54:28;14.60;99.90
64654;DHT22;51065;48.884;12.598;2023-09-18T00:56:54;14.60;99.90
64654;DHT22;51065;48.884;12.598;2023-09-18T00:59:20;14.50;99.90
64654;DHT22;51065;48.884;12.598;2023-09-18T01:01:46;14.50;99.90
64654;DHT22;51065;48.884;12.598;2023-09-18T01:04:13;14.60;99.90
64654;DHT22;51065;48.884;12.598;2023-09-18T01:06:38;14.50;99.90
64654;DHT22;51065;48.884;12.598;2023-09-18T01:09:04;14.60;99.90
64654;DHT22;51065;48.884;12.598;2023-09-18T01:11:43;14.70;99.90
64654;DHT22;51065;48.884;12.598;2023-09-18T01:17:01;14.70;99.90
64654;DHT22;51065;48.884;12.598;2023-09-18T01:22:09;14.80;99.90
64654;DHT22;51065;48.884;12.598;2023-09-18T01:24:36;14.80;99.90
64654;DHT22;51065;48.884;12.598;2023-09-18T01:27:02;14.90;99.90
64654;DHT22;51065;48.884;12.598;2023-09-18T01:29:29;14.80;99.90
64654;DHT22;51065;48.884;12.598;2023-09-18T01:31:55;14.90;99.90
64654;DHT22;51065;48.884;12.598;2023-09-18T01:34:21;14.90;99.90
64654;DHT22;51065;48.884;12.598;2023-09-18T01:36:48;14.80;99.90
64654;DHT22;51065;48.884;12.598;2023-09-18T01:39:14;14.80;99.90
64654;DHT22;51065;48.884;12.598;2023-09-18T01:41:41;14.70;99.90
64654;DHT22;51065;48.884;12.598;2023-09-18T01:44:06;14.60;99.90
64654;DHT22;51065;48.884;12.598;2023-09-18T01:46:32;14.60;99.90
64654;DHT22;51065;48.884;12.598;2023-09-18T01:49:02;14.50;99.90
64654;DHT22;51065;48.884;12.598;2023-09-18T01:51:29;14.40;99.90
64654;DHT22;51065;48.884;12.598;2023-09-18T01:53:55;14.30;99.90
64654;DHT22;51065;48.884;12.598;2023-09-18T01:56:20;14.30;99.90
64654;DHT22;51065;48.884;12.598;2023-09-18T01:58:46;14.40;99.90
64654;DHT22;51065;48.884;12.598;2023-09-18T02:01:11;14.40;99.90
64654;DHT22;51065;48.884;12.598;2023-09-18T02:03:37;14.50;99.90
64654;DHT22;51065;48.884;12.598;2023-09-18T02:06:07;14.50;99.90
64654;DHT22;51065;48.884;12.598;2023-09-18T02:08:34;14.60;99.90
64654;DHT22;51065;48.884;12.598;2023-09-18T02:11:00;14.60;99.90
64654;DHT22;51065;48.884;12.598;2023-09-18T02:13:26;14.60;99.90
64654;DHT22;51065;48.884;12.598;2023-09-18T02:15:51;14.60;99.90
64654;DHT22;51065;48.884;12.598;2023-09-18T02:18:17;14.50;99.90
64654;DHT22;51065;48.884;12.598;2023-09-18T02:20:42;14.50;99.90
64654;DHT22;51065;48.884;12.598;2023-09-18T02:23:12;14.60;99.90
64654;DHT22;51065;48.884;12.598;2023-09-18T02:25:38;14.50;99.90
64654;DHT22;51065;48.884;12.598;2023-09-18T02:28:05;14.50;99.90
64654;DHT22;51065;48.884;12.598;2023-09-18T02:30:31;14.60;99.90
64654;DHT22;51065;48.884;12.598;2023-09-18T02:32:56;14.50;99.90
64654;DHT22;51065;48.884;12.598;2023-09-18T02:35:22;14.50;99.90
64654;DHT22;51065;48.884;12.598;2023-09-18T02:37:47;14.40;99.90
64654;DHT22;51065;48.884;12.598;2023-09-18T02:40:16;14.30;99.90
64654;DHT22;51065;48.884;12.598;2023-09-18T02:42:41;14.20;99.90
64654;DHT22;51065;48.884;12.598;2023-09-18T02:45:07;14.20;99.90
64654;DHT22;51065;48.884;12.598;2023-09-18T02:47:33;14.10;99.90
64654;DHT22;51065;48.884;12.598;2023-09-18T02:49:59;14.00;99.90
64654;DHT22;51065;48.884;12.598;2023-09-18T02:52:24;14.00;99.90
64654;DHT22;51065;48.884;12.598;2023-09-18T02:54:50;13.90;99.90
64654;DHT22;51065;48.884;12.598;2023-09-18T02:57:15;13.80;99.90
64654;DHT22;51065;48.884;12.598;2023-09-18T02:59:41;13.80;99.90
64654;DHT22;51065;48.884;12.598;2023-09-18T03:02:06;13.80;99.90
64654;DHT22;51065;48.884;12.598;2023-09-18T03:04:32;13.80;99.90
64654;DHT22;51065;48.884;12.598;2023-09-18T03:06:57;13.80;99.90
64654;DHT22;51065;48.884;12.598;2023-09-18T03:09:23;13.80;99.90
64654;DHT22;51065;48.884;12.598;2023-09-18T03:11:49;13.70;99.90
64654;DHT22;51065;48.884;12.598;2023-09-18T03:14:14;13.70;99.90
64654;DHT22;51065;48.884;12.598;2023-09-18T03:16:40;13.60;99.90
64654;DHT22;51065;48.884;12.598;2023-09-18T03:19:05;13.60;99.90
64654;DHT22;51065;48.884;12.598;2023-09-18T03:21:31;13.60;99.90
64654;DHT22;51065;48.884;12.598;2023-09-18T03:23:59;13.60;99.90
64654;DHT22;51065;48.884;12.598;2023-09-18T03:26:24;13.60;99.90
64654;DHT22;51065;48.884;12.598;2023-09-18T03:28:50;13.60;99.90
64654;DHT22;51065;48.884;12.598;2023-09-18T03:31:15;13.60;99.90
64654;DHT22;51065;48.884;12.598;2023-09-18T03:33:41;13.70;99.90
64654;DHT22;51065;48.884;12.598;2023-09-18T03:36:06;13.80;99.90
64654;DHT22;51065;48.884;12.598;2023-09-18T03:38:33;13.90;99.90
64654;DHT22;51065;48.884;12.598;2023-09-18T03:41:00;13.90;99.90
64654;DHT22;51065;48.884;12.598;2023-09-18T03:43:26;13.90;99.90
64654;DHT22;51065;48.884;12.598;2023-09-18T03:45:52;13.90;99.90
64654;DHT22;51065;48.884;12.598;2023-09-18T03:48:17;13.90;99.90
64654;DHT22;51065;48.884;12.598;2023-09-18T03:50:43;13.90;99.90
64654;DHT22;51065;48.884;12.598;2023-09-18T03:53:09;13.90;99.90
64654;DHT22;51065;48.884;12.598;2023-09-18T03:55:34;13.90;99.90
64654;DHT22;51065;48.884;12.598;2023-09-18T03:58:00;13.80;99.90
64654;DHT22;51065;48.884;12.598;2023-09-18T04:00:25;13.80;99.90
64654;DHT22;51065;48.884;12.598;2023-09-18T04:02:51;13.80;99.90
64654;DHT22;51065;48.884;12.598;2023-09-18T04:05:16;13.70;99.90
64654;DHT22;51065;48.884;12.598;2023-09-18T04:07:42;13.70;99.90
64654;DHT22;51065;48.884;12.598;2023-09-18T04:10:11;13.60;99.90
64654;DHT22;51065;48.884;12.598;2023-09-18T04:12:43;13.60;99.90
64654;DHT22;51065;48.884;12.598;2023-09-18T04:15:09;13.60;99.90
64654;DHT22;51065;48.884;12.598;2023-09-18T04:17:34;13.60;99.90
64654;DHT22;51065;48.884;12.598;2023-09-18T04:20:00;13.60;99.90
64654;DHT22;51065;48.884;12.598;2023-09-18T04:22:25;13.50;99.90
64654;DHT22;51065;48.884;12.598;2023-09-18T04:24:51;13.50;99.90
64654;DHT22;51065;48.884;12.598;2023-09-18T04:27:16;13.60;99.90
64654;DHT22;51065;48.884;12.598;2023-09-18T04:29:42;13.60;99.90
64654;DHT22;51065;48.884;12.598;2023-09-18T04:32:07;13.70;99.90
64654;DHT22;51065;48.884;12.598;2023-09-18T04:34:33;13.80;99.90
64654;DHT22;51065;48.884;12.598;2023-09-18T04:37:00;13.80;99.90
64654;DHT22;51065;48.884;12.598;2023-09-18T04:39:25;13.80;99.90
64654;DHT22;51065;48.884;12.598;2023-09-18T04:41:51;13.90;99.90
64654;DHT22;51065;48.884;12.598;2023-09-18T04:44:16;13.80;99.90
64654;DHT22;51065;48.884;12.598;2023-09-18T04:46:42;13.80;99.90
64654;DHT22;51065;48.884;12.598;2023-09-18T04:49:08;13.80;99.90
64654;DHT22;51065;48.884;12.598;2023-09-18T04:51:35;13.80;99.90
64654;DHT22;51065;48.884;12.598;2023-09-18T04:54:02;13.70;99.90
64654;DHT22;51065;48.884;12.598;2023-09-18T04:56:28;13.70;99.90
64654;DHT22;51065;48.884;12.598;2023-09-18T04:58:53;13.60;99.90
64654;DHT22;51065;48.884;12.598;2023-09-18T05:01:19;13.60;99.90
64654;DHT22;51065;48.884;12.598;2023-09-18T05:03:44;13.70;99.90
64654;DHT22;51065;48.884;12.598;2023-09-18T05:06:10;13.80;99.90
64654;DHT22;51065;48.884;12.598;2023-09-18T05:08:35;13.90;99.90
64654;DHT22;51065;48.884;12.598;2023-09-18T05:11:01;14.00;99.90
64654;DHT22;51065;48.884;12.598;2023-09-18T05:13:27;14.10;99.90
64654;DHT22;51065;48.884;12.598;2023-09-18T05:15:52;14.10;99.90
64654;DHT22;51065;48.884;12.598;2023-09-18T05:18:18;14.20;99.90
64654;DHT22;51065;48.884;12.598;2023-09-18T05:20:43;14.20;99.90
64654;DHT22;51065;48.884;12.598;2023-09-18T05:23:09;14.20;99.90
64654;DHT22;51065;48.884;12.598;2023-09-18T05:25:34;14.30;99.90
64654;DHT22;51065;48.884;12.598;2023-09-18T05:28:06;14.40;99.90
64654;DHT22;51065;48.884;12.598;2023-09-18T05:30:32;14.50;99.90
64654;DHT22;51065;48.884;12.598;2023-09-18T05:33:00;14.60;99.90
64654;DHT22;51065;48.884;12.598;2023-09-18T05:35:35;14.70;99.90
64654;DHT22;51065;48.884;12.598;2023-09-18T05:38:04;14.80;99.90
64654;DHT22;51065;48.884;12.598;2023-09-18T05:40:30;15.00;99.90
64654;DHT22;51065;48.884;12.598;2023-09-18T05:42:56;15.20;99.90
64654;DHT22;51065;48.884;12.598;2023-09-18T05:45:21;15.50;99.90
64654;DHT22;51065;48.884;12.598;2023-09-18T05:47:47;15.70;99.90
64654;DHT22;51065;48.884;12.598;2023-09-18T05:50:13;16.10;99.90
64654;DHT22;51065;48.884;12.598;2023-09-18T05:52:42;16.40;99.90
64654;DHT22;51065;48.884;12.598;2023-09-18T05:55:07;16.80;99.90
64654;DHT22;51065;48.884;12.598;2023-09-18T05:57:33;16.90;99.90
64654;DHT22;51065;48.884;12.598;2023-09-18T05:59:59;17.10;99.90
64654;DHT22;51065;48.884;12.598;2023-09-18T06:02:25;17.30;99.90
64654;DHT22;51065;48.884;12.598;2023-09-18T06:04:59;17.70;99.90
64654;DHT22;51065;48.884;12.598;2023-09-18T06:07:28;18.10;99.90
64654;DHT22;51065;48.884;12.598;2023-09-18T06:09:53;18.60;99.90
64654;DHT22;51065;48.884;12.598;2023-09-18T06:12:19;19.00;99.90
64654;DHT22;51065;48.884;12.598;2023-09-18T06:14:44;19.20;99.90
64654;DHT22;51065;48.884;12.598;2023-09-18T06:17:12;19.40;99.90
64654;DHT22;51065;48.884;12.598;2023-09-18T06:19:37;19.90;99.90
64654;DHT22;51065;48.884;12.598;2023-09-18T06:22:03;20.20;99.90
64654;DHT22;51065;48.884;12.598;2023-09-18T06:24:28;20.40;99.90
64654;DHT22;51065;48.884;12.598;2023-09-18T06:26:54;20.70;99.90
64654;DHT22;51065;48.884;12.598;2023-09-18T06:29:19;21.00;99.90
64654;DHT22;51065;48.884;12.598;2023-09-18T06:31:45;21.30;99.90
64654;DHT22;51065;48.884;12.598;2023-09-18T06:34:11;21.60;99.90
64654;DHT22;51065;48.884;12.598;2023-09-18T06:36:36;21.40;99.90
64654;DHT22;51065;48.884;12.598;2023-09-18T06:39:02;21.20;99.90
64654;DHT22;51065;48.884;12.598;2023-09-18T06:41:28;20.90;99.90
64654;DHT22;51065;48.884;12.598;2023-09-18T06:43:54;21.00;99.90
64654;DHT22;51065;48.884;12.598;2023-09-18T06:46:19;21.10;99.90
64654;DHT22;51065;48.884;12.598;2023-09-18T06:48:45;20.80;99.90
64654;DHT22;51065;48.884;12.598;2023-09-18T06:51:15;20.90;99.90
64654;DHT22;51065;48.884;12.598;2023-09-18T06:53:40;21.10;99.90
64654;DHT22;51065;48.884;12.598;2023-09-18T06:56:06;21.50;99.90
64654;DHT22;51065;48.884;12.598;2023-09-18T06:58:31;22.10;99.90
64654;DHT22;51065;48.884;12.598;2023-09-18T07:00:57;22.40;99.90
64654;DHT22;51065;48.884;12.598;2023-09-18T07:03:23;22.70;99.90
64654;DHT22;51065;48.884;12.598;2023-09-18T07:05:49;22.80;99.90
64654;DHT22;51065;48.884;12.598;2023-09-18T07:08:14;22.70;99.90
64654;DHT22;51065;48.884;12.598;2023-09-18T07:10:44;23.00;99.90
64654;DHT22;51065;48.884;12.598;2023-09-18T07:13:10;23.20;99.90
64654;DHT22;51065;48.884;12.598;2023-09-18T07:15:36;23.30;99.90
64654;DHT22;51065;48.884;12.598;2023-09-18T07:18:02;23.50;99.90
64654;DHT22;51065;48.884;12.598;2023-09-18T07:20:27;23.80;99.90
64654;DHT22;51065;48.884;12.598;2023-09-18T07:22:53;24.20;99.90
64654;DHT22;51065;48.884;12.598;2023-09-18T07:25:19;24.10;99.90
64654;DHT22;51065;48.884;12.598;2023-09-18T07:27:44;24.40;99.90
64654;DHT22;51065;48.884;12.598;2023-09-18T07:30:10;24.50;99.90
64654;DHT22;51065;48.884;12.598;2023-09-18T07:32:36;24.40;99.90
64654;DHT22;51065;48.884;12.598;2023-09-18T07:35:02;24.10;99.90
64654;DHT22;51065;48.884;12.598;2023-09-18T07:37:30;23.50;99.90
64654;DHT22;51065;48.884;12.598;2023-09-18T07:39:55;23.00;99.90
64654;DHT22;51065;48.884;12.598;2023-09-18T07:42:23;22.90;99.90
64654;DHT22;51065;48.884;12.598;2023-09-18T07:44:49;22.60;99.90
64654;DHT22;51065;48.884;12.598;2023-09-18T07:47:14;22.60;99.90
64654;DHT22;51065;48.884;12.598;2023-09-18T07:49:40;22.80;99.90
64654;DHT22;51065;48.884;12.598;2023-09-18T07:52:05;22.70;99.90
64654;DHT22;51065;48.884;12.598;2023-09-18T07:54:31;22.80;99.90
64654;DHT22;51065;48.884;12.598;2023-09-18T07:56:56;23.20;99.90
64654;DHT22;51065;48.884;12.598;2023-09-18T07:59:22;23.90;99.90
64654;DHT22;51065;48.884;12.598;2023-09-18T08:01:50;24.50;99.90
64654;DHT22;51065;48.884;12.598;2023-09-18T08:04:16;24.80;99.90
64654;DHT22;51065;48.884;12.598;2023-09-18T08:06:41;24.70;99.90
64654;DHT22;51065;48.884;12.598;2023-09-18T08:09:07;24.90;99.90
64654;DHT22;51065;48.884;12.598;2023-09-18T08:11:35;25.00;99.90
64654;DHT22;51065;48.884;12.598;2023-09-18T08:14:02;25.10;99.90
64654;DHT22;51065;48.884;12.598;2023-09-18T08:16:28;25.00;99.90
64654;DHT22;51065;48.884;12.598;2023-09-18T08:18:54;24.90;99.90
64654;DHT22;51065;48.884;12.598;2023-09-18T08:21:21;25.50;99.90
64654;DHT22;51065;48.884;12.598;2023-09-18T08:23:48;25.80;99.90
64654;DHT22;51065;48.884;12.598;2023-09-18T08:26:13;26.20;99.90
64654;DHT22;51065;48.884;12.598;2023-09-18T08:28:39;26.60;99.90
64654;DHT22;51065;48.884;12.598;2023-09-18T08:31:09;27.00;99.90
64654;DHT22;51065;48.884;12.598;2023-09-18T08:33:34;27.60;96.60
64654;DHT22;51065;48.884;12.598;2023-09-18T08:36:01;27.90;93.70
64654;DHT22;51065;48.884;12.598;2023-09-18T08:38:27;28.00;93.70
64654;DHT22;51065;48.884;12.598;2023-09-18T08:40:56;28.10;90.20
64654;DHT22;51065;48.884;12.598;2023-09-18T08:43:22;28.20;93.00
64654;DHT22;51065;48.884;12.598;2023-09-18T08:48:14;28.20;95.20
64654;DHT22;51065;48.884;12.598;2023-09-18T08:50:40;28.30;96.40
64654;DHT22;51065;48.884;12.598;2023-09-18T08:53:07;28.90;87.90
64654;DHT22;51065;48.884;12.598;2023-09-18T08:55:33;29.40;81.10
64654;DHT22;51065;48.884;12.598;2023-09-18T08:57:59;29.60;83.10
64654;DHT22;51065;48.884;12.598;2023-09-18T09:00:25;29.80;81.60
64654;DHT22;51065;48.884;12.598;2023-09-18T09:02:51;30.00;71.10
64654;DHT22;51065;48.884;12.598;2023-09-18T09:05:17;30.40;69.10
64654;DHT22;51065;48.884;12.598;2023-09-18T09:07:43;30.60;66.30
64654;DHT22;51065;48.884;12.598;2023-09-18T09:10:08;30.40;69.40
64654;DHT22;51065;48.884;12.598;2023-09-18T09:12:47;30.40;73.10
64654;DHT22;51065;48.884;12.598;2023-09-18T09:15:13;30.20;74.10
64654;DHT22;51065;48.884;12.598;2023-09-18T09:17:38;30.30;72.90
64654;DHT22;51065;48.884;12.598;2023-09-18T09:20:08;30.40;69.30
64654;DHT22;51065;48.884;12.598;2023-09-18T09:22:37;29.80;71.80
64654;DHT22;51065;48.884;12.598;2023-09-18T09:25:03;29.60;77.70
64654;DHT22;51065;48.884;12.598;2023-09-18T09:27:29;29.30;90.80
64654;DHT22;51065;48.884;12.598;2023-09-18T09:30:06;28.50;94.10
64654;DHT22;51065;48.884;12.598;2023-09-18T09:32:32;28.70;92.90
64654;DHT22;51065;48.884;12.598;2023-09-18T09:34:59;29.50;91.10
64654;DHT22;51065;48.884;12.598;2023-09-18T09:37:31;29.80;86.40
64654;DHT22;51065;48.884;12.598;2023-09-18T09:39:57;29.40;92.60
64654;DHT22;51065;48.884;12.598;2023-09-18T09:42:38;30.40;75.10
64654;DHT22;51065;48.884;12.598;2023-09-18T09:45:04;30.70;67.50
64654;DHT22;51065;48.884;12.598;2023-09-18T09:47:36;31.10;66.90
64654;DHT22;51065;48.884;12.598;2023-09-18T09:50:12;31.20;65.00
64654;DHT22;51065;48.884;12.598;2023-09-18T09:52:42;30.50;67.10
64654;DHT22;51065;48.884;12.598;2023-09-18T09:55:18;29.80;75.30
64654;DHT22;51065;48.884;12.598;2023-09-18T09:57:47;30.30;85.90
64654;DHT22;51065;48.884;12.598;2023-09-18T10:00:13;30.60;67.30
64654;DHT22;51065;48.884;12.598;2023-09-18T10:02:53;30.30;72.70
64654;DHT22;51065;48.884;12.598;2023-09-18T10:05:21;30.10;72.60
64654;DHT22;51065;48.884;12.598;2023-09-18T10:07:51;30.20;66.40
64654;DHT22;51065;48.884;12.598;2023-09-18T10:10:17;29.70;74.20
64654;DHT22;51065;48.884;12.598;2023-09-18T10:12:43;30.00;72.90
64654;DHT22;51065;48.884;12.598;2023-09-18T10:15:09;29.00;82.30
64654;DHT22;51065;48.884;12.598;2023-09-18T10:17:36;28.90;83.10
64654;DHT22;51065;48.884;12.598;2023-09-18T10:20:12;29.40;75.30
64654;DHT22;51065;48.884;12.598;2023-09-18T10:22:48;29.40;81.80
64654;DHT22;51065;48.884;12.598;2023-09-18T10:25:17;30.80;66.90
64654;DHT22;51065;48.884;12.598;2023-09-18T10:27:47;31.30;59.90
64654;DHT22;51065;48.884;12.598;2023-09-18T10:30:15;32.20;53.20
64654;DHT22;51065;48.884;12.598;2023-09-18T10:32:46;32.30;51.60
64654;DHT22;51065;48.884;12.598;2023-09-18T10:35:13;31.90;57.90
64654;DHT22;51065;48.884;12.598;2023-09-18T10:37:39;31.30;57.20
64654;DHT22;51065;48.884;12.598;2023-09-18T10:40:07;30.60;68.80
64654;DHT22;51065;48.884;12.598;2023-09-18T10:42:40;30.00;75.30
64654;DHT22;51065;48.884;12.598;2023-09-18T10:45:07;29.20;76.90
64654;DHT22;51065;48.884;12.598;2023-09-18T10:47:37;28.30;93.80
64654;DHT22;51065;48.884;12.598;2023-09-18T10:50:03;28.20;95.20
64654;DHT22;51065;48.884;12.598;2023-09-18T10:52:30;28.30;93.60
64654;DHT22;51065;48.884;12.598;2023-09-18T10:54:55;27.80;95.70
64654;DHT22;51065;48.884;12.598;2023-09-18T10:57:21;27.30;99.10
64654;DHT22;51065;48.884;12.598;2023-09-18T10:59:47;26.90;99.90
64654;DHT22;51065;48.884;12.598;2023-09-18T11:02:15;26.90;99.90
64654;DHT22;51065;48.884;12.598;2023-09-18T11:04:42;26.80;99.90
64654;DHT22;51065;48.884;12.598;2023-09-18T11:07:07;26.50;99.90
64654;DHT22;51065;48.884;12.598;2023-09-18T11:09:42;26.50;99.90
64654;DHT22;51065;48.884;12.598;2023-09-18T11:12:08;26.50;99.90
64654;DHT22;51065;48.884;12.598;2023-09-18T11:14:41;26.80;99.90
64654;DHT22;51065;48.884;12.598;2023-09-18T11:22:46;26.40;99.90
64654;DHT22;51065;48.884;12.598;2023-09-18T11:28:13;26.20;99.90
64654;DHT22;51065;48.884;12.598;2023-09-18T11:30:50;26.30;99.90
64654;DHT22;51065;48.884;12.598;2023-09-18T11:33:29;26.20;99.90
64654;DHT22;51065;48.884;12.598;2023-09-18T11:35:55;26.30;99.90
64654;DHT22;51065;48.884;12.598;2023-09-18T11:38:21;26.30;99.90
64654;DHT22;51065;48.884;12.598;2023-09-18T11:40:48;26.60;99.90
64654;DHT22;51065;48.884;12.598;2023-09-18T11:45:54;26.50;99.90
64654;DHT22;51065;48.884;12.598;2023-09-18T11:48:21;26.40;99.90
64654;DHT22;51065;48.884;12.598;2023-09-18T11:50:49;26.50;99.90
64654;DHT22;51065;48.884;12.598;2023-09-18T11:53:17;26.60;99.90
64654;DHT22;51065;48.884;12.598;2023-09-18T11:55:43;26.40;99.90
64654;DHT22;51065;48.884;12.598;2023-09-18T11:58:08;26.60;99.90
64654;DHT22;51065;48.884;12.598;2023-09-18T12:00:37;26.60;99.90
64654;DHT22;51065;48.884;12.598;2023-09-18T12:03:15;26.80;99.90
64654;DHT22;51065;48.884;12.598;2023-09-18T12:05:56;26.70;99.90
64654;DHT22;51065;48.884;12.598;2023-09-18T12:08:23;26.70;99.90
64654;DHT22;51065;48.884;12.598;2023-09-18T12:10:52;26.60;99.90
64654;DHT22;51065;48.884;12.598;2023-09-18T12:13:17;26.90;99.90
64654;DHT22;51065;48.884;12.598;2023-09-18T12:15:43;27.40;99.90
64654;DHT22;51065;48.884;12.598;2023-09-18T12:18:09;27.60;99.90
64654;DHT22;51065;48.884;12.598;2023-09-18T12:20:36;27.70;99.90
64654;DHT22;51065;48.884;12.598;2023-09-18T12:23:02;27.60;99.90
64654;DHT22;51065;48.884;12.598;2023-09-18T12:25:28;27.40;99.90
64654;DHT22;51065;48.884;12.598;2023-09-18T12:27:54;27.40;99.90
64654;DHT22;51065;48.884;12.598;2023-09-18T12:30:19;27.20;99.90
64654;DHT22;51065;48.884;12.598;2023-09-18T12:32:46;27.10;99.90
64654;DHT22;51065;48.884;12.598;2023-09-18T12:35:15;27.20;99.90
64654;DHT22;51065;48.884;12.598;2023-09-18T12:37:43;27.10;99.90
64654;DHT22;51065;48.884;12.598;2023-09-18T12:42:47;26.50;99.90
64654;DHT22;51065;48.884;12.598;2023-09-18T12:45:12;26.40;99.90
64654;DHT22;51065;48.884;12.598;2023-09-18T12:47:38;26.50;99.90
64654;DHT22;51065;48.884;12.598;2023-09-18T12:50:05;26.80;99.90
64654;DHT22;51065;48.884;12.598;2023-09-18T12:52:32;27.20;99.90
64654;DHT22;51065;48.884;12.598;2023-09-18T12:54:58;27.70;99.90
64654;DHT22;51065;48.884;12.598;2023-09-18T12:57:25;28.00;99.90
64654;DHT22;51065;48.884;12.598;2023-09-18T12:59:51;27.80;99.90
64654;DHT22;51065;48.884;12.598;2023-09-18T13:02:19;27.60;99.90
64654;DHT22;51065;48.884;12.598;2023-09-18T13:04:52;27.80;99.90
64654;DHT22;51065;48.884;12.598;2023-09-18T13:07:18;27.80;99.90
64654;DHT22;51065;48.884;12.598;2023-09-18T13:10:03;27.50;99.90
64654;DHT22;51065;48.884;12.598;2023-09-18T13:12:43;27.00;99.90
64654;DHT22;51065;48.884;12.598;2023-09-18T13:15:09;26.70;99.90
64654;DHT22;51065;48.884;12.598;2023-09-18T13:17:41;26.50;99.90
64654;DHT22;51065;48.884;12.598;2023-09-18T13:20:10;26.20;99.90
64654;DHT22;51065;48.884;12.598;2023-09-18T13:22:38;26.10;99.90
64654;DHT22;51065;48.884;12.598;2023-09-18T13:25:05;25.80;99.90
64654;DHT22;51065;48.884;12.598;2023-09-18T13:27:31;25.70;99.90
64654;DHT22;51065;48.884;12.598;2023-09-18T13:29:56;25.50;99.90
64654;DHT22;51065;48.884;12.598;2023-09-18T13:32:25;25.40;99.90
64654;DHT22;51065;48.884;12.598;2023-09-18T13:34:51;25.20;99.90
64654;DHT22;51065;48.884;12.598;2023-09-18T13:37:17;25.00;99.90
64654;DHT22;51065;48.884;12.598;2023-09-18T13:39:45;25.00;99.90
64654;DHT22;51065;48.884;12.598;2023-09-18T13:42:11;24.80;99.90
64654;DHT22;51065;48.884;12.598;2023-09-18T13:44:36;24.80;99.90
64654;DHT22;51065;48.884;12.598;2023-09-18T13:47:02;24.70;99.90
64654;DHT22;51065;48.884;12.598;2023-09-18T13:49:29;24.70;99.90
64654;DHT22;51065;48.884;12.598;2023-09-18T13:51:54;24.70;99.90
64654;DHT22;51065;48.884;12.598;2023-09-18T13:54:22;24.60;99.90
64654;DHT22;51065;48.884;12.598;2023-09-18T13:56:47;24.50;99.90
64654;DHT22;51065;48.884;12.598;2023-09-18T13:59:13;24.40;99.90
64654;DHT22;51065;48.884;12.598;2023-09-18T14:01:39;24.30;99.90
64654;DHT22;51065;48.884;12.598;2023-09-18T14:04:05;24.20;99.90
64654;DHT22;51065;48.884;12.598;2023-09-18T14:06:34;24.20;99.90
64654;DHT22;51065;48.884;12.598;2023-09-18T14:08:59;24.20;99.90
64654;DHT22;51065;48.884;12.598;2023-09-18T14:11:25;24.20;95.50
64654;DHT22;51065;48.884;12.598;2023-09-18T14:13:50;24.20;96.80
64654;DHT22;51065;48.884;12.598;2023-09-18T14:16:16;24.10;99.20
64654;DHT22;51065;48.884;12.598;2023-09-18T14:18:43;24.00;99.90
64654;DHT22;51065;48.884;12.598;2023-09-18T14:21:08;23.90;99.90
64654;DHT22;51065;48.884;12.598;2023-09-18T14:23:34;23.70;99.90
64654;DHT22;51065;48.884;12.598;2023-09-18T14:25:59;23.60;99.90
64654;DHT22;51065;48.884;12.598;2023-09-18T14:28:26;23.40;99.90
64654;DHT22;51065;48.884;12.598;2023-09-18T14:30:51;23.20;99.90
64654;DHT22;51065;48.884;12.598;2023-09-18T14:33:17;23.10;99.90
64654;DHT22;51065;48.884;12.598;2023-09-18T14:35:42;23.00;99.90
64654;DHT22;51065;48.884;12.598;2023-09-18T14:38:08;22.80;99.90
64654;DHT22;51065;48.884;12.598;2023-09-18T14:40:34;22.60;99.90
64654;DHT22;51065;48.884;12.598;2023-09-18T14:42:59;22.40;99.90
64654;DHT22;51065;48.884;12.598;2023-09-18T14:45:25;22.20;99.90
64654;DHT22;51065;48.884;12.598;2023-09-18T14:47:50;21.80;99.90
64654;DHT22;51065;48.884;12.598;2023-09-18T14:50:16;21.50;99.90
64654;DHT22;51065;48.884;12.598;2023-09-18T14:52:42;21.30;99.90
64654;DHT22;51065;48.884;12.598;2023-09-18T14:55:08;21.20;99.90
64654;DHT22;51065;48.884;12.598;2023-09-18T14:57:33;21.10;99.90
64654;DHT22;51065;48.884;12.598;2023-09-18T14:59:59;21.00;99.90
64654;DHT22;51065;48.884;12.598;2023-09-18T15:02:24;20.90;99.90
64654;DHT22;51065;48.884;12.598;2023-09-18T15:04:55;20.70;99.90
64654;DHT22;51065;48.884;12.598;2023-09-18T15:07:20;20.50;99.90
64654;DHT22;51065;48.884;12.598;2023-09-18T15:09:46;20.10;99.90
64654;DHT22;51065;48.884;12.598;2023-09-18T15:12:14;19.70;99.90
64654;DHT22;51065;48.884;12.598;2023-09-18T15:14:40;19.30;99.90
64654;DHT22;51065;48.884;12.598;2023-09-18T15:17:06;18.80;99.90
64654;DHT22;51065;48.884;12.598;2023-09-18T15:19:33;18.40;99.90
64654;DHT22;51065;48.884;12.598;2023-09-18T15:21:59;18.10;99.90
64654;DHT22;51065;48.884;12.598;2023-09-18T15:24:26;17.80;99.90
64654;DHT22;51065;48.884;12.598;2023-09-18T15:26:52;17.70;99.90
64654;DHT22;51065;48.884;12.598;2023-09-18T15:29:17;17.50;99.90
64654;DHT22;51065;48.884;12.598;2023-09-18T15:31:43;17.40;99.90
64654;DHT22;51065;48.884;12.598;2023-09-18T15:34:08;17.40;99.90